Dunn Center, North Dakota
Current Conditions -  °F | °C
As of 3:56 AM on Friday 28 Nov 2014 (Local Time) from KDIK Reporting Station
Broken Clouds Broken Clouds  
Wind Chill: 10°   Ceiling: 9500
Heat Index: 20°   Visibility: 10mi
Dew Point: 17°   Wind: 8mph
Humidity: 89%   Direction: 80°E
Pressure: 29.66"   Gusts: NA
Location:  47.35°N, 102.62°W
Report Text: KDIK 281056Z AUTO 08007KT 10SM BKN095 M07/M08 A2966 RMK AO2 PRESFR SLP077 T10671083
Loading
Personal Weather Stations






























Interactive Weather Map New forecast layout! Learn more

10-Day Weather Forecast

Advertisements
Track Severe Weather on mobile